createdAt,value
2018-10-12T00:00:37.242Z,18.57
2018-10-12T00:03:04.767Z,16.43
2018-10-12T00:05:31.990Z,16.90
2018-10-12T00:07:59.241Z,17.50
2018-10-12T00:10:26.417Z,18.23
2018-10-12T00:12:53.707Z,17.30
2018-10-12T00:15:20.863Z,17.00
2018-10-12T00:17:48.041Z,20.43
2018-10-12T00:20:15.251Z,17.83
2018-10-12T00:22:42.437Z,22.50
2018-10-12T00:25:09.581Z,20.37
2018-10-12T00:27:36.777Z,17.80
2018-10-12T00:30:03.997Z,18.87
2018-10-12T00:32:31.146Z,22.50
2018-10-12T00:34:58.456Z,21.00
2018-10-12T00:37:25.604Z,18.60
2018-10-12T00:39:52.768Z,20.17
2018-10-12T00:42:20.041Z,17.77
2018-10-12T00:44:47.204Z,18.80
2018-10-12T00:47:14.408Z,19.53
2018-10-12T00:49:41.693Z,18.97
2018-10-12T00:52:08.847Z,19.43
2018-10-12T00:54:35.993Z,18.93
2018-10-12T00:57:06.649Z,19.70
2018-10-12T00:59:33.789Z,19.87
2018-10-12T01:02:00.948Z,19.63
2018-10-12T01:04:28.147Z,20.73
2018-10-12T01:06:55.291Z,20.37
2018-10-12T01:09:22.460Z,21.13
2018-10-12T01:11:49.824Z,20.03
2018-10-12T01:14:16.975Z,19.70
2018-10-12T01:16:44.136Z,20.70
2018-10-12T01:19:11.461Z,19.13
2018-10-12T01:21:38.664Z,21.80
2018-10-12T01:24:05.817Z,21.73
2018-10-12T01:26:33.049Z,23.53
2018-10-12T01:29:00.202Z,21.53
2018-10-12T01:31:27.874Z,20.87
2018-10-12T01:33:55.108Z,27.57
2018-10-12T01:36:22.273Z,22.20
2018-10-12T01:38:50.437Z,21.17
2018-10-12T01:41:17.620Z,19.37
2018-10-12T01:43:44.947Z,20.33
2018-10-12T01:46:12.120Z,21.17
2018-10-12T01:48:39.447Z,22.27
2018-10-12T01:51:06.685Z,20.33
2018-10-12T01:53:34.144Z,21.20
2018-10-12T01:56:02.685Z,22.23
2018-10-12T01:58:31.356Z,22.27
2018-10-12T02:00:58.534Z,22.40
2018-10-12T02:03:25.765Z,21.20
2018-10-12T02:05:52.905Z,21.57
2018-10-12T02:08:20.056Z,22.33
2018-10-12T02:10:47.330Z,21.17
2018-10-12T02:13:14.922Z,21.33
2018-10-12T02:15:42.165Z,22.17
2018-10-12T02:18:09.371Z,23.30
2018-10-12T02:20:36.509Z,21.23
2018-10-12T02:23:03.695Z,22.93
2018-10-12T02:25:30.933Z,26.97
2018-10-12T02:27:58.057Z,23.23
2018-10-12T02:30:25.218Z,23.07
2018-10-12T02:32:52.415Z,24.93
2018-10-12T02:35:19.560Z,24.87
2018-10-12T02:37:46.705Z,26.63
2018-10-12T02:40:13.916Z,24.97
2018-10-12T02:42:41.060Z,26.13
2018-10-12T02:45:08.209Z,27.03
2018-10-12T02:47:35.382Z,25.00
2018-10-12T02:50:02.820Z,23.93
2018-10-12T02:52:29.972Z,25.07
2018-10-12T02:54:57.152Z,23.77
2018-10-12T02:57:24.335Z,25.83
2018-10-12T02:59:51.497Z,22.40
2018-10-12T03:02:18.757Z,24.73
2018-10-12T03:04:45.898Z,25.70
2018-10-12T03:07:13.053Z,25.73
2018-10-12T03:09:40.251Z,23.97
2018-10-12T03:12:07.400Z,26.57
2018-10-12T03:14:34.615Z,24.87
2018-10-12T03:17:01.819Z,24.83
2018-10-12T03:19:28.984Z,25.40
2018-10-12T03:21:56.141Z,25.77
2018-10-12T03:24:23.340Z,28.80
2018-10-12T03:26:50.473Z,27.00
2018-10-12T03:29:17.636Z,25.47
2018-10-12T03:31:44.889Z,25.93
2018-10-12T03:34:12.026Z,27.67
2018-10-12T03:36:40.326Z,26.50
2018-10-12T03:39:08.043Z,25.23
2018-10-12T03:41:41.879Z,28.27
2018-10-12T03:44:20.958Z,26.10
2018-10-12T03:46:48.425Z,25.63
2018-10-12T03:49:15.624Z,25.77
2018-10-12T03:51:42.891Z,30.30
2018-10-12T03:54:10.260Z,25.50
2018-10-12T03:56:37.484Z,25.67
2018-10-12T03:59:04.620Z,27.57
2018-10-12T04:01:31.773Z,25.27
2018-10-12T04:04:00.353Z,27.23
2018-10-12T04:06:27.629Z,28.13
2018-10-12T04:08:54.766Z,27.17
2018-10-12T04:11:22.138Z,25.10
2018-10-12T04:13:49.319Z,25.00
2018-10-12T04:16:16.526Z,26.53
2018-10-12T04:18:43.709Z,26.07
2018-10-12T04:21:10.902Z,25.17
2018-10-12T04:23:38.085Z,26.20
2018-10-12T04:26:05.287Z,26.50
2018-10-12T04:28:32.549Z,28.47
2018-10-12T04:30:59.783Z,30.57
2018-10-12T04:33:27.080Z,27.40
2018-10-12T04:35:54.267Z,28.77
2018-10-12T04:38:21.431Z,30.70
2018-10-12T04:41:13.518Z,29.80
2018-10-12T04:43:40.917Z,28.07
2018-10-12T04:46:10.664Z,27.53
2018-10-12T04:48:38.198Z,30.60
2018-10-12T04:51:09.631Z,27.40
2018-10-12T04:53:36.959Z,32.17
2018-10-12T04:56:08.754Z,30.57
2018-10-12T04:58:36.437Z,28.47
2018-10-12T05:01:06.325Z,28.80
2018-10-12T05:03:33.788Z,30.60
2018-10-12T05:06:01.061Z,28.03
2018-10-12T05:08:28.216Z,29.63
2018-10-12T05:10:55.426Z,29.47
2018-10-12T05:13:22.577Z,29.10
2018-10-12T05:15:49.741Z,29.27
2018-10-12T05:18:16.921Z,34.00
2018-10-12T05:20:44.061Z,31.03
2018-10-12T05:23:12.285Z,30.37
2018-10-12T05:25:39.478Z,29.60
2018-10-12T05:28:06.648Z,31.93
2018-10-12T05:30:33.805Z,30.07
2018-10-12T05:33:01.036Z,31.17
2018-10-12T05:35:28.238Z,32.37
2018-10-12T05:37:55.448Z,33.00
2018-10-12T05:40:24.353Z,34.10
2018-10-12T05:42:51.588Z,31.03
2018-10-12T05:45:18.700Z,35.83
2018-10-12T05:47:45.906Z,31.83
2018-10-12T05:50:13.106Z,32.10
2018-10-12T05:52:41.372Z,30.40
2018-10-12T05:55:08.778Z,31.97
2018-10-12T05:57:38.938Z,31.10
2018-10-12T06:00:06.335Z,33.97
2018-10-12T06:02:33.556Z,33.63
2018-10-12T06:05:00.717Z,30.47
2018-10-12T06:07:28.105Z,32.83
2018-10-12T06:09:55.446Z,29.20
2018-10-12T06:12:22.469Z,30.53
2018-10-12T06:14:49.670Z,31.67
2018-10-12T06:17:16.900Z,29.80
2018-10-12T06:19:44.062Z,30.50
2018-10-12T06:22:11.289Z,29.80
2018-10-12T06:24:38.529Z,33.23
2018-10-12T06:27:05.722Z,33.53
2018-10-12T06:29:32.896Z,26.63
2018-10-12T06:32:00.514Z,28.90
2018-10-12T06:34:27.763Z,31.77
2018-10-12T06:36:54.969Z,27.70
2018-10-12T06:39:22.203Z,28.57
2018-10-12T06:41:49.538Z,27.17
2018-10-12T06:44:16.662Z,29.37
2018-10-12T06:46:44.125Z,32.33
2018-10-12T06:49:11.319Z,31.23
2018-10-12T06:51:39.563Z,29.80
2018-10-12T06:54:07.372Z,28.40
2018-10-12T06:56:34.720Z,30.10
2018-10-12T06:59:02.100Z,28.80
2018-10-12T07:01:29.874Z,27.80
2018-10-12T07:03:57.285Z,26.90
2018-10-12T07:06:24.462Z,28.77
2018-10-12T07:08:51.908Z,28.87
2018-10-12T07:11:19.119Z,26.07
2018-10-12T07:13:51.864Z,25.93
2018-10-12T07:16:19.608Z,24.60
2018-10-12T07:18:46.994Z,25.37
2018-10-12T07:21:14.297Z,25.33
2018-10-12T07:23:43.405Z,24.53
2018-10-12T07:26:10.621Z,24.00
2018-10-12T07:28:37.910Z,28.77
2018-10-12T07:31:05.721Z,22.87
2018-10-12T07:33:32.982Z,23.70
2018-10-12T07:36:00.936Z,21.93
2018-10-12T07:38:27.551Z,21.80
2018-10-12T07:40:54.844Z,23.17
2018-10-12T07:43:22.222Z,23.77
2018-10-12T07:45:49.605Z,20.37
2018-10-12T07:48:16.976Z,23.60
2018-10-12T07:50:44.381Z,20.00
2018-10-12T07:53:11.910Z,21.80
2018-10-12T07:55:39.160Z,22.53
2018-10-12T07:58:06.424Z,21.83
2018-10-12T08:00:33.870Z,21.67
2018-10-12T08:03:00.959Z,20.43
2018-10-12T08:05:28.185Z,20.10
2018-10-12T08:07:55.425Z,20.17
2018-10-12T08:10:22.711Z,18.73
2018-10-12T08:12:49.937Z,19.10
2018-10-12T08:15:17.190Z,20.20
2018-10-12T08:17:44.398Z,18.60
2018-10-12T08:20:11.932Z,19.07
2018-10-12T08:22:39.126Z,18.87
2018-10-12T08:25:06.440Z,18.50
2018-10-12T08:27:36.475Z,18.40
2018-10-12T08:30:04.441Z,18.63
2018-10-12T08:32:31.795Z,18.13
2018-10-12T08:34:59.093Z,18.37
2018-10-12T08:37:30.037Z,18.77
2018-10-12T08:39:57.356Z,16.43
2018-10-12T08:42:24.592Z,18.47
2018-10-12T08:44:51.784Z,19.77
2018-10-12T08:47:19.185Z,18.37
2018-10-12T08:49:46.462Z,19.03
2018-10-12T08:52:13.689Z,17.17
2018-10-12T08:54:40.910Z,17.53
2018-10-12T08:57:08.156Z,18.93
2018-10-12T08:59:35.365Z,20.80
2018-10-12T09:02:06.941Z,18.70
2018-10-12T09:04:34.244Z,18.33
2018-10-12T09:07:03.525Z,23.53
2018-10-12T09:09:30.752Z,19.10
2018-10-12T09:11:58.093Z,18.43
2018-10-12T09:14:25.286Z,17.90
2018-10-12T09:16:52.466Z,18.80
2018-10-12T09:19:19.796Z,19.73
2018-10-12T09:21:47.068Z,17.47
2018-10-12T09:24:14.335Z,18.83
2018-10-12T09:26:41.638Z,16.83
2018-10-12T09:29:08.832Z,17.43
2018-10-12T09:31:36.047Z,16.93
2018-10-12T09:34:03.337Z,17.33
2018-10-12T09:36:30.631Z,17.07
2018-10-12T09:38:57.890Z,16.40
2018-10-12T09:41:25.238Z,16.63
2018-10-12T09:43:52.469Z,17.93
2018-10-12T09:46:19.663Z,18.27
2018-10-12T09:48:46.880Z,17.33
2018-10-12T09:51:14.066Z,18.23
2018-10-12T09:53:41.237Z,17.73
2018-10-12T09:56:08.607Z,18.83
2018-10-12T09:58:35.897Z,19.93
2018-10-12T10:01:08.853Z,18.27
2018-10-12T10:03:41.727Z,17.63
2018-10-12T10:06:09.039Z,18.33
2018-10-12T10:08:36.468Z,18.87
2018-10-12T10:11:11.377Z,16.50
2018-10-12T10:13:38.825Z,16.70
2018-10-12T10:16:06.054Z,17.00
2018-10-12T10:18:33.289Z,17.00
2018-10-12T10:21:00.600Z,19.43
2018-10-12T10:23:27.879Z,15.83
2018-10-12T10:25:55.279Z,15.17
2018-10-12T10:28:26.140Z,17.50
2018-10-12T10:30:53.446Z,15.30
2018-10-12T10:33:20.760Z,15.80
2018-10-12T10:35:47.933Z,15.40
2018-10-12T10:38:16.167Z,14.17
2018-10-12T10:40:43.412Z,17.70
2018-10-12T10:43:10.621Z,15.20
2018-10-12T10:45:37.926Z,15.27
2018-10-12T10:48:05.199Z,17.27
2018-10-12T10:50:32.628Z,15.50
2018-10-12T10:52:59.973Z,14.47
2018-10-12T10:55:27.441Z,13.93
2018-10-12T10:57:54.720Z,16.70
2018-10-12T11:00:22.221Z,13.80
2018-10-12T11:02:49.678Z,14.13
2018-10-12T11:05:16.964Z,14.77
2018-10-12T11:07:45.321Z,12.63
2018-10-12T11:10:12.641Z,14.27
2018-10-12T11:12:40.145Z,13.53
2018-10-12T11:15:07.484Z,14.13
2018-10-12T11:17:34.738Z,16.73
2018-10-12T11:20:02.007Z,14.60
2018-10-12T11:22:29.269Z,15.27
2018-10-12T11:25:00.261Z,13.30
2018-10-12T11:27:27.464Z,12.50
2018-10-12T11:29:54.610Z,14.20
2018-10-12T11:32:21.841Z,12.83
2018-10-12T11:34:49.006Z,12.80
2018-10-12T11:37:16.397Z,12.70
2018-10-12T11:39:44.868Z,12.63
2018-10-12T11:42:12.075Z,12.90
2018-10-12T11:44:39.369Z,11.97
2018-10-12T11:47:07.622Z,14.13
2018-10-12T11:49:34.792Z,12.07
2018-10-12T11:52:02.011Z,11.57
2018-10-12T11:54:29.350Z,11.43
2018-10-12T11:56:57.029Z,11.83
2018-10-12T11:59:25.545Z,15.77
2018-10-12T12:01:52.883Z,13.50
2018-10-12T12:04:20.683Z,17.60
2018-10-12T12:06:47.956Z,11.30
2018-10-12T12:09:15.348Z,11.87
2018-10-12T12:11:43.716Z,13.23
2018-10-12T12:14:10.944Z,10.97
2018-10-12T12:16:38.451Z,10.83
2018-10-12T12:19:05.624Z,11.10
2018-10-12T12:21:32.993Z,11.13
2018-10-12T12:24:00.829Z,13.27
2018-10-12T12:26:30.009Z,10.57
2018-10-12T12:28:58.673Z,11.73
2018-10-12T12:31:30.285Z,10.70
2018-10-12T12:33:57.895Z,15.17
2018-10-12T12:36:25.202Z,11.73
2018-10-12T12:38:52.418Z,11.77
2018-10-12T12:41:21.034Z,10.43
2018-10-12T12:43:48.218Z,11.70
2018-10-12T12:46:16.013Z,12.37
2018-10-12T12:48:43.585Z,11.10
2018-10-12T12:51:11.949Z,10.90
2018-10-12T12:53:39.167Z,11.57
2018-10-12T12:56:07.300Z,11.10
2018-10-12T12:58:34.504Z,12.50
2018-10-12T13:01:01.827Z,11.70
2018-10-12T13:03:29.044Z,12.00
2018-10-12T13:05:56.272Z,11.93
2018-10-12T13:08:23.457Z,13.33
2018-10-12T13:10:50.647Z,13.20
2018-10-12T13:13:17.816Z,12.10
2018-10-12T13:15:45.046Z,11.77
2018-10-12T13:18:12.349Z,13.80
2018-10-12T13:20:39.486Z,12.37
2018-10-12T13:23:06.667Z,11.03
2018-10-12T13:25:33.887Z,11.13
2018-10-12T13:28:01.023Z,11.37
2018-10-12T13:30:28.241Z,11.03
2018-10-12T13:32:55.476Z,12.60
2018-10-12T13:35:22.629Z,13.70
2018-10-12T13:37:49.999Z,12.50
2018-10-12T13:40:17.155Z,11.43
2018-10-12T13:42:44.325Z,11.27
2018-10-12T13:45:11.521Z,11.87
2018-10-12T13:47:38.670Z,11.60
2018-10-12T13:50:06.420Z,11.07
2018-10-12T13:52:33.650Z,11.50
2018-10-12T13:55:00.780Z,11.07
2018-10-12T13:57:27.937Z,10.00
2018-10-12T13:59:55.152Z,11.07
2018-10-12T14:02:22.345Z,11.37
2018-10-12T14:04:49.474Z,13.33
2018-10-12T14:07:16.740Z,11.90
2018-10-12T14:09:43.905Z,10.97
2018-10-12T14:12:11.083Z,10.90
2018-10-12T14:14:38.468Z,11.07
2018-10-12T14:17:05.985Z,10.60
2018-10-12T14:19:33.286Z,12.83
2018-10-12T14:22:00.504Z,10.80
2018-10-12T14:24:27.659Z,10.63
2018-10-12T14:26:54.859Z,11.37
2018-10-12T14:29:22.033Z,10.33
2018-10-12T14:31:49.202Z,10.33
2018-10-12T14:34:16.361Z,11.27
2018-10-12T14:36:43.705Z,11.53
2018-10-12T14:39:10.905Z,10.70
2018-10-12T14:41:38.203Z,12.23
2018-10-12T14:44:05.598Z,10.70
2018-10-12T14:46:32.860Z,11.47
2018-10-12T14:49:00.237Z,11.90
2018-10-12T14:51:27.554Z,10.53
2018-10-12T14:53:54.756Z,11.07
2018-10-12T14:56:21.913Z,10.50
2018-10-12T14:58:49.277Z,10.23
2018-10-12T15:01:16.662Z,11.37
2018-10-12T15:03:43.975Z,11.50
2018-10-12T15:06:19.631Z,14.37
2018-10-12T15:08:46.906Z,15.67
2018-10-12T15:11:15.130Z,12.70
2018-10-12T15:13:42.412Z,10.03
2018-10-12T15:16:09.634Z,10.90
2018-10-12T15:18:36.886Z,10.57
2018-10-12T15:21:04.337Z,12.37
2018-10-12T15:23:32.276Z,11.73
2018-10-12T15:26:00.014Z,11.50
2018-10-12T15:28:27.274Z,10.27
2018-10-12T15:30:54.454Z,10.80
2018-10-12T15:33:22.672Z,12.53
2018-10-12T15:36:01.719Z,11.37
2018-10-12T15:38:32.297Z,11.10
2018-10-12T15:41:00.406Z,10.80
2018-10-12T15:43:27.667Z,11.17
2018-10-12T15:45:55.912Z,11.03
2018-10-12T15:48:23.523Z,14.47
2018-10-12T15:50:51.607Z,10.70
2018-10-12T15:53:23.360Z,12.10
2018-10-12T15:55:50.590Z,10.93
2018-10-12T15:58:26.218Z,11.37
2018-10-12T16:00:54.586Z,15.60
2018-10-12T16:03:23.227Z,12.33
2018-10-12T16:05:57.960Z,12.40
2018-10-12T16:08:27.292Z,13.07
2018-10-12T16:11:01.304Z,14.93
2018-10-12T16:13:32.650Z,12.57
2018-10-12T16:16:13.233Z,13.20
2018-10-12T16:18:51.172Z,21.37
2018-10-12T16:21:25.261Z,14.90
2018-10-12T16:23:54.900Z,14.07
2018-10-12T16:26:24.264Z,13.80
2018-10-12T16:28:59.774Z,14.23
2018-10-12T16:31:28.987Z,16.47
2018-10-12T16:33:56.325Z,14.83
2018-10-12T16:36:25.644Z,20.70
2018-10-12T16:38:53.002Z,14.67
2018-10-12T16:41:22.318Z,16.47
2018-10-12T16:43:49.588Z,21.83
2018-10-12T16:46:17.314Z,15.70
2018-10-12T16:48:44.601Z,19.77
2018-10-12T16:51:11.935Z,15.93
2018-10-12T16:53:39.257Z,17.33
2018-10-12T16:56:06.509Z,17.47
2018-10-12T16:58:33.748Z,17.00
2018-10-12T17:01:03.024Z,16.23
2018-10-12T17:03:30.639Z,17.67
2018-10-12T17:05:58.054Z,21.67
2018-10-12T17:08:25.543Z,22.90
2018-10-12T17:10:52.806Z,27.40
2018-10-12T17:17:21.979Z,28.20
2018-10-12T17:19:56.196Z,27.60
2018-10-12T17:22:25.655Z,26.10
2018-10-12T17:28:01.696Z,26.90
2018-10-12T17:33:29.056Z,29.33
2018-10-12T17:36:01.421Z,27.77
2018-10-12T17:38:28.694Z,25.00
2018-10-12T17:40:55.944Z,25.37
2018-10-12T17:43:25.126Z,27.93
2018-10-12T17:45:52.635Z,23.10
2018-10-12T17:48:21.112Z,22.97
2018-10-12T17:50:58.414Z,24.57
2018-10-12T17:53:25.625Z,29.07
2018-10-12T17:55:56.067Z,29.93
2018-10-12T17:58:26.705Z,34.73
2018-10-12T18:00:55.592Z,34.87
2018-10-12T18:03:24.082Z,36.20
2018-10-12T18:05:51.390Z,31.87
2018-10-12T18:08:18.706Z,35.23
2018-10-12T18:10:46.005Z,29.83
2018-10-12T18:13:13.284Z,34.63
2018-10-12T18:15:40.472Z,29.53
2018-10-12T18:18:07.771Z,39.80
2018-10-12T18:20:35.114Z,32.47
2018-10-12T18:23:02.405Z,30.53
2018-10-12T18:25:30.657Z,30.90
2018-10-12T18:27:58.644Z,30.93
2018-10-12T18:30:26.256Z,31.80
2018-10-12T18:32:53.530Z,36.07
2018-10-12T18:35:20.785Z,31.53
2018-10-12T18:37:51.889Z,31.73
2018-10-12T18:40:19.092Z,33.20
2018-10-12T18:42:49.837Z,34.83
2018-10-12T18:45:17.005Z,28.00
2018-10-12T18:47:44.285Z,30.00
2018-10-12T18:50:11.531Z,31.20
2018-10-12T18:52:38.696Z,33.50
2018-10-12T18:55:05.891Z,29.03
2018-10-12T18:57:33.860Z,29.37
2018-10-12T19:00:05.999Z,29.10
2018-10-12T19:02:35.010Z,28.33
2018-10-12T19:05:02.536Z,27.70
2018-10-12T19:07:30.158Z,30.37
2018-10-12T19:09:57.474Z,30.43
2018-10-12T19:12:24.908Z,29.07
2018-10-12T19:14:52.076Z,28.93
2018-10-12T19:17:19.233Z,27.67
2018-10-12T19:19:46.385Z,28.07
2018-10-12T19:22:13.601Z,26.57
2018-10-12T19:24:40.832Z,26.50
2018-10-12T19:27:08.025Z,29.87
2018-10-12T19:29:35.129Z,27.23
2018-10-12T19:32:02.294Z,25.97
2018-10-12T19:34:30.058Z,28.70
2018-10-12T19:36:57.253Z,26.00
2018-10-12T19:39:24.413Z,33.03
2018-10-12T19:41:51.583Z,26.10
2018-10-12T19:44:18.685Z,26.57
2018-10-12T19:46:45.848Z,26.10
2018-10-12T19:49:13.089Z,25.17
2018-10-12T19:51:40.228Z,27.67
2018-10-12T19:54:07.431Z,28.67
2018-10-12T19:56:34.558Z,29.10
2018-10-12T19:59:01.695Z,25.67
2018-10-12T20:01:28.945Z,25.20
2018-10-12T20:03:56.201Z,29.07
2018-10-12T20:06:23.508Z,28.20
2018-10-12T20:08:50.686Z,27.87
2018-10-12T20:11:17.821Z,28.43
2018-10-12T20:13:44.940Z,29.13
2018-10-12T20:16:12.172Z,30.07
2018-10-12T20:18:39.294Z,28.40
2018-10-12T20:21:06.553Z,29.57
2018-10-12T20:23:33.902Z,29.53
2018-10-12T20:26:01.130Z,27.57
2018-10-12T20:28:28.255Z,28.37
2018-10-12T20:30:55.417Z,28.20
2018-10-12T20:33:22.546Z,28.70
2018-10-12T20:35:49.733Z,28.10
2018-10-12T20:40:18.751Z,28.17
2018-10-12T20:42:46.216Z,25.87
2018-10-12T20:45:14.105Z,27.87
2018-10-12T20:47:41.373Z,27.70
2018-10-12T20:50:08.681Z,28.07
2018-10-12T20:52:35.824Z,29.33
2018-10-12T20:55:03.036Z,29.03
2018-10-12T20:57:30.220Z,27.30
2018-10-12T20:59:57.396Z,29.27
2018-10-12T21:02:24.624Z,28.67
2018-10-12T21:04:51.833Z,32.13
2018-10-12T21:07:18.996Z,28.50
2018-10-12T21:09:46.293Z,29.80
2018-10-12T21:12:13.450Z,27.50
2018-10-12T21:14:40.625Z,26.50
2018-10-12T21:17:07.895Z,27.40
2018-10-12T21:19:35.076Z,27.20
2018-10-12T21:22:02.300Z,27.53
2018-10-12T21:24:29.581Z,27.43
2018-10-12T21:26:56.862Z,27.50
2018-10-12T21:29:24.083Z,31.47
2018-10-12T21:31:51.328Z,30.83
2018-10-12T21:34:19.187Z,28.93
2018-10-12T21:36:46.349Z,31.23
2018-10-12T21:39:13.929Z,30.40
2018-10-12T21:41:41.131Z,30.40
2018-10-12T21:44:08.503Z,29.73
2018-10-12T21:46:35.740Z,30.37
2018-10-12T21:49:02.926Z,30.80
2018-10-12T21:51:30.109Z,32.00
2018-10-12T21:53:57.311Z,29.63
2018-10-12T21:56:24.521Z,29.27
2018-10-12T21:58:51.672Z,30.43
2018-10-12T22:01:18.876Z,29.97
2018-10-12T22:03:46.012Z,30.50
2018-10-12T22:06:13.165Z,31.17
2018-10-12T22:08:46.118Z,32.27
2018-10-12T22:11:13.433Z,30.97
2018-10-12T22:13:40.718Z,30.70
2018-10-12T22:16:07.969Z,32.33
2018-10-12T22:18:35.171Z,32.73
2018-10-12T22:21:02.386Z,32.17
2018-10-12T22:23:29.641Z,29.87
2018-10-12T22:25:56.913Z,32.43
2018-10-12T22:28:24.128Z,33.10
2018-10-12T22:30:51.403Z,32.63
2018-10-12T22:33:18.588Z,32.20
2018-10-12T22:35:45.732Z,33.23
2018-10-12T22:38:12.973Z,32.93
2018-10-12T22:40:40.165Z,32.10
2018-10-12T22:43:07.362Z,31.50
2018-10-12T22:45:34.545Z,30.63
2018-10-12T22:48:01.712Z,31.13
2018-10-12T22:50:29.004Z,30.10
2018-10-12T22:52:56.237Z,30.43
2018-10-12T22:55:23.441Z,31.60
2018-10-12T22:57:55.211Z,29.07
2018-10-12T23:00:22.507Z,28.53
2018-10-12T23:02:49.665Z,29.80
2018-10-12T23:05:16.805Z,31.47
2018-10-12T23:07:44.031Z,29.53
2018-10-12T23:10:11.165Z,30.53
2018-10-12T23:12:38.366Z,30.10
2018-10-12T23:15:05.573Z,29.33
2018-10-12T23:17:32.781Z,28.03
2018-10-12T23:19:59.954Z,30.00
2018-10-12T23:22:27.177Z,29.33
2018-10-12T23:24:54.342Z,28.73
2018-10-12T23:27:21.482Z,28.77
2018-10-12T23:29:48.714Z,28.30
2018-10-12T23:32:15.889Z,30.33
2018-10-12T23:34:43.053Z,29.40
2018-10-12T23:37:10.220Z,28.70
2018-10-12T23:39:37.402Z,28.60
2018-10-12T23:42:04.660Z,28.10
2018-10-12T23:44:31.863Z,27.80
2018-10-12T23:46:59.036Z,28.43
2018-10-12T23:49:26.225Z,29.47
2018-10-12T23:51:53.500Z,29.27
2018-10-12T23:54:20.696Z,29.40
2018-10-12T23:56:47.837Z,29.63
2018-10-12T23:59:15.033Z,29.57
